createdAt,value
2022-09-03T00:02:05.056Z,89.20
2022-09-03T00:04:43.865Z,89.50
2022-09-03T00:07:18.530Z,90.00
2022-09-03T00:09:51.959Z,89.90
2022-09-03T00:15:20.447Z,90.00
2022-09-03T00:17:53.192Z,90.50
2022-09-03T00:26:31.292Z,90.90
2022-09-03T00:29:03.563Z,91.10
2022-09-03T00:31:38.954Z,91.20
2022-09-03T00:34:13.476Z,91.40
2022-09-03T00:36:44.677Z,91.40
2022-09-03T00:41:59.908Z,91.60
2022-09-03T00:44:48.261Z,91.90
2022-09-03T00:50:31.531Z,92.20
2022-09-03T00:53:09.511Z,92.30
2022-09-03T00:55:53.578Z,92.40
2022-09-03T00:58:37.862Z,92.60
2022-09-03T01:01:16.822Z,92.70
2022-09-03T01:03:58.656Z,92.80
2022-09-03T01:06:35.470Z,92.80
2022-09-03T01:09:23.962Z,92.90
2022-09-03T01:25:51.400Z,93.70
2022-09-03T01:30:59.557Z,94.00
2022-09-03T01:33:34.944Z,94.10
2022-09-03T01:36:10.532Z,94.30
2022-09-03T01:38:44.443Z,94.30
2022-09-03T01:44:13.494Z,94.60
2022-09-03T02:06:34.784Z,95.50
2022-09-03T02:22:13.553Z,96.50
2022-09-03T02:27:17.636Z,97.60
2022-09-03T02:29:45.797Z,97.90
2022-09-03T02:32:14.910Z,98.10
2022-09-03T02:34:44.123Z,98.40
2022-09-03T02:37:32.541Z,98.70
2022-09-03T02:40:06.915Z,99.20
2022-09-03T02:42:46.238Z,99.30
2022-09-03T02:45:25.164Z,99.40
2022-09-03T02:47:56.785Z,99.70
2022-09-03T02:50:25.318Z,99.80
2022-09-03T02:58:22.664Z,99.90
2022-09-03T03:00:52.272Z,99.90
2022-09-03T03:03:20.323Z,99.90
2022-09-03T03:14:08.257Z,99.90
2022-09-03T03:16:38.006Z,99.90
2022-09-03T03:19:06.260Z,99.90
2022-09-03T03:21:34.987Z,99.90
2022-09-03T03:24:03.084Z,99.90
2022-09-03T03:31:49.579Z,99.90
2022-09-03T03:34:17.524Z,99.90
2022-09-03T03:36:45.484Z,99.90
2022-09-03T03:39:13.783Z,99.90
2022-09-03T03:41:56.549Z,99.90
2022-09-03T03:53:01.880Z,99.90
2022-09-03T03:55:35.122Z,99.90
2022-09-03T03:58:03.348Z,99.90
2022-09-03T04:00:31.442Z,99.90
2022-09-03T04:03:14.571Z,99.90
2022-09-03T04:05:59.853Z,99.90
2022-09-03T04:08:28.329Z,99.90
2022-09-03T04:11:01.280Z,99.90
2022-09-03T04:17:10.538Z,99.90
2022-09-03T04:19:38.588Z,99.90
2022-09-03T04:22:07.945Z,99.90
2022-09-03T04:27:45.485Z,99.90
2022-09-03T04:33:09.347Z,99.90
2022-09-03T04:41:39.262Z,99.90
2022-09-03T04:44:45.370Z,99.90
2022-09-03T04:50:49.786Z,99.90
2022-09-03T04:56:51.338Z,99.90
2022-09-03T04:59:20.794Z,99.90
2022-09-03T05:01:56.831Z,99.90
2022-09-03T05:07:11.583Z,99.90
2022-09-03T05:09:40.219Z,99.90
2022-09-03T05:28:13.868Z,99.90
2022-09-03T05:30:41.937Z,99.90
2022-09-03T05:36:53.556Z,99.90
2022-09-03T05:39:36.198Z,99.90
2022-09-03T05:42:04.500Z,99.90
2022-09-03T05:47:35.044Z,99.90
2022-09-03T05:50:03.007Z,99.90
2022-09-03T05:52:34.352Z,99.90
2022-09-03T05:55:02.369Z,99.90
2022-09-03T05:57:31.290Z,99.90
2022-09-03T06:00:00.245Z,99.90
2022-09-03T06:07:53.780Z,99.90
2022-09-03T06:10:25.725Z,99.90
2022-09-03T06:13:03.968Z,99.90
2022-09-03T06:15:32.916Z,99.90
2022-09-03T06:18:25.085Z,99.90
2022-09-03T06:20:56.541Z,99.90
2022-09-03T06:23:26.312Z,99.90
2022-09-03T06:26:05.251Z,99.90
2022-09-03T06:28:34.968Z,99.90
2022-09-03T06:31:03.507Z,99.90
2022-09-03T06:36:43.083Z,99.90
2022-09-03T06:39:12.520Z,99.90
2022-09-03T06:41:40.503Z,99.90
2022-09-03T06:44:12.053Z,99.90
2022-09-03T06:46:42.535Z,99.90
2022-09-03T06:55:16.527Z,99.90
2022-09-03T06:57:44.558Z,99.90
2022-09-03T07:00:14.174Z,99.90
2022-09-03T07:02:45.268Z,99.90
2022-09-03T07:05:14.373Z,99.90
2022-09-03T07:07:43.688Z,99.90
2022-09-03T07:10:12.293Z,99.90
2022-09-03T07:12:41.602Z,99.90
2022-09-03T07:15:10.802Z,99.90
2022-09-03T07:17:40.915Z,99.90
2022-09-03T07:20:09.304Z,99.90
2022-09-03T07:22:37.599Z,99.90
2022-09-03T07:25:06.556Z,99.90
2022-09-03T07:27:36.574Z,99.90
2022-09-03T07:32:41.553Z,99.90
2022-09-03T07:38:02.185Z,99.90
2022-09-03T07:40:33.054Z,99.90
2022-09-03T07:43:04.408Z,99.90
2022-09-03T07:45:33.159Z,99.90
2022-09-03T07:48:02.511Z,99.90
2022-09-03T07:50:34.107Z,99.90
2022-09-03T07:53:02.158Z,99.90
2022-09-03T08:08:49.567Z,99.80
2022-09-03T08:11:21.738Z,98.10
2022-09-03T08:16:28.352Z,97.40
2022-09-03T08:18:56.571Z,97.90
2022-09-03T08:21:25.586Z,97.30
2022-09-03T08:29:19.090Z,96.30
2022-09-03T08:31:48.616Z,96.30
2022-09-03T08:34:18.670Z,95.40
2022-09-03T08:36:48.356Z,96.00
2022-09-03T08:39:22.658Z,95.40
2022-09-03T08:42:14.912Z,94.90
2022-09-03T08:44:49.480Z,94.80
2022-09-03T08:47:24.624Z,95.00
2022-09-03T08:49:57.995Z,94.70
2022-09-03T08:52:34.091Z,93.20
2022-09-03T08:55:15.364Z,92.90
2022-09-03T09:03:25.356Z,93.00
2022-09-03T09:06:02.412Z,92.10
2022-09-03T09:08:40.841Z,91.90
2022-09-03T09:11:22.698Z,91.50
2022-09-03T09:14:00.268Z,91.30
2022-09-03T09:27:31.711Z,86.80
2022-09-03T09:30:04.828Z,87.30
2022-09-03T09:32:34.973Z,88.70
2022-09-03T09:35:03.424Z,87.70
2022-09-03T09:37:31.667Z,85.70
2022-09-03T09:40:02.405Z,86.80
2022-09-03T09:42:34.439Z,87.10
2022-09-03T09:45:13.597Z,85.30
2022-09-03T09:47:42.446Z,82.80
2022-09-03T09:50:26.239Z,83.90
2022-09-03T09:53:10.392Z,82.50
2022-09-03T09:55:50.532Z,83.70
2022-09-03T09:58:23.920Z,82.00
2022-09-03T10:01:13.799Z,81.90
2022-09-03T10:03:49.873Z,81.20
2022-09-03T10:06:35.673Z,80.50
2022-09-03T10:09:08.767Z,79.40
2022-09-03T10:11:42.422Z,77.00
2022-09-03T10:14:20.338Z,77.30
2022-09-03T10:16:55.709Z,78.70
2022-09-03T10:19:30.672Z,76.90
2022-09-03T10:22:06.101Z,76.00
2022-09-03T10:24:44.625Z,76.10
2022-09-03T10:27:16.198Z,74.70
2022-09-03T10:29:47.687Z,74.40
2022-09-03T10:32:27.455Z,75.20
2022-09-03T10:35:13.327Z,74.00
2022-09-03T10:37:47.079Z,74.10
2022-09-03T10:40:31.605Z,73.70
2022-09-03T10:43:32.610Z,72.60
2022-09-03T10:46:09.288Z,73.60
2022-09-03T10:49:09.534Z,73.00
2022-09-03T10:51:47.449Z,74.00
2022-09-03T10:54:40.876Z,72.40
2022-09-03T10:57:22.293Z,72.20
2022-09-03T11:06:03.448Z,72.00
2022-09-03T11:08:37.162Z,71.20
2022-09-03T11:11:15.094Z,72.50
2022-09-03T11:13:47.835Z,70.00
2022-09-03T11:16:22.784Z,70.20
2022-09-03T11:18:56.128Z,71.20
2022-09-03T11:21:28.449Z,69.40
2022-09-03T11:24:06.749Z,70.10
2022-09-03T11:26:36.291Z,69.50
2022-09-03T11:29:10.837Z,70.50
2022-09-03T11:31:51.158Z,69.00
2022-09-03T11:34:32.904Z,69.40
2022-09-03T11:37:26.246Z,69.80
2022-09-03T11:39:59.782Z,69.30
2022-09-03T11:42:42.903Z,69.80
2022-09-03T11:48:00.716Z,69.10
2022-09-03T11:53:35.911Z,69.40
2022-09-03T12:12:33.571Z,69.40
2022-09-03T12:15:25.118Z,68.80
2022-09-03T12:18:34.647Z,67.30
2022-09-03T15:41:47.708Z,62.00
2022-09-03T15:44:20.040Z,62.70
2022-09-03T15:46:57.778Z,63.00
2022-09-03T15:49:37.133Z,62.30
2022-09-03T15:52:43.245Z,63.60
2022-09-03T17:33:26.313Z,64.90
2022-09-03T17:36:05.079Z,64.90
2022-09-03T17:38:56.983Z,65.30
2022-09-03T17:41:34.404Z,65.20
2022-09-03T17:44:11.285Z,65.00
2022-09-03T17:46:47.108Z,65.60
2022-09-03T17:50:26.179Z,65.20
2022-09-03T17:53:27.843Z,65.70
2022-09-03T17:59:58.319Z,65.60
2022-09-03T18:03:05.245Z,65.60
2022-09-03T18:06:05.650Z,65.70
2022-09-03T18:09:06.417Z,65.50
2022-09-03T18:12:02.554Z,65.90
2022-09-03T18:15:03.389Z,65.60
2022-09-03T18:17:47.693Z,66.60
2022-09-03T18:21:31.971Z,67.00
2022-09-03T18:28:31.260Z,67.80
2022-09-03T18:31:33.490Z,68.10
2022-09-03T18:34:32.987Z,68.30
2022-09-03T18:37:32.378Z,68.70
2022-09-03T18:40:33.501Z,69.80
2022-09-03T18:43:33.143Z,70.50
2022-09-03T18:49:59.069Z,70.70
2022-09-03T18:53:05.489Z,71.70
2022-09-03T18:56:04.894Z,72.10
2022-09-03T18:59:01.694Z,72.90
2022-09-03T19:02:05.357Z,72.50
2022-09-03T19:05:06.981Z,71.20
2022-09-03T19:08:31.906Z,71.80
2022-09-03T19:11:39.580Z,72.20
2022-09-03T19:14:35.604Z,72.00
2022-09-03T19:17:35.099Z,72.30
2022-09-03T19:20:27.556Z,71.90
2022-09-03T19:23:13.246Z,72.20
2022-09-03T19:26:02.756Z,72.00
2022-09-03T19:29:04.650Z,72.30
2022-09-03T19:32:03.637Z,72.50
2022-09-03T19:35:13.855Z,72.30
2022-09-03T19:38:08.777Z,72.30
2022-09-03T19:41:11.517Z,72.30
2022-09-03T19:44:16.465Z,72.70
2022-09-03T19:47:08.819Z,71.80
2022-09-03T19:50:09.719Z,72.30
2022-09-03T19:53:06.596Z,72.30
2022-09-03T19:55:56.563Z,73.10
2022-09-03T19:58:48.451Z,72.50
2022-09-03T20:01:37.625Z,72.30
2022-09-03T20:04:31.235Z,72.40
2022-09-03T20:07:18.422Z,72.90
2022-09-03T20:10:05.365Z,73.60
2022-09-03T20:12:37.408Z,72.80
2022-09-03T20:15:06.916Z,72.90
2022-09-03T20:17:50.004Z,73.40
2022-09-03T20:20:25.432Z,73.20
2022-09-03T20:22:59.067Z,72.70
2022-09-03T20:25:49.557Z,72.60
2022-09-03T20:28:30.276Z,72.80
2022-09-03T20:31:03.628Z,73.20
2022-09-03T20:33:46.673Z,73.20
2022-09-03T20:36:23.487Z,73.50
2022-09-03T20:39:14.895Z,73.60
2022-09-03T20:41:51.159Z,73.90
2022-09-03T20:44:48.971Z,74.00
2022-09-03T20:47:40.181Z,73.80
2022-09-03T20:50:22.161Z,74.50
2022-09-03T20:53:01.678Z,74.50
2022-09-03T20:55:33.894Z,74.20
2022-09-03T20:58:11.836Z,74.30
2022-09-03T21:00:49.260Z,74.70
2022-09-03T21:03:21.088Z,74.90
2022-09-03T21:06:03.757Z,74.90
2022-09-03T21:09:01.442Z,75.30
2022-09-03T21:11:37.114Z,75.40
2022-09-03T21:14:14.934Z,75.50
2022-09-03T21:16:51.513Z,75.70
2022-09-03T21:19:32.163Z,75.70
2022-09-03T21:22:08.619Z,75.80
2022-09-03T21:24:41.604Z,75.60
2022-09-03T21:27:15.085Z,75.90
2022-09-03T21:29:47.514Z,75.80
2022-09-03T21:32:19.681Z,76.10
2022-09-03T21:34:57.822Z,75.80
2022-09-03T21:37:28.172Z,76.10
2022-09-03T21:39:58.143Z,76.30
2022-09-03T21:42:31.965Z,76.60
2022-09-03T21:45:06.051Z,76.60
2022-09-03T21:47:45.408Z,76.70
2022-09-03T21:50:20.645Z,77.20
2022-09-03T21:52:55.133Z,77.50
2022-09-03T21:55:29.934Z,77.50
2022-09-03T21:58:09.288Z,78.20
2022-09-03T22:00:37.894Z,77.60
2022-09-03T22:03:10.783Z,77.40
2022-09-03T22:05:49.752Z,77.60
2022-09-03T22:08:28.652Z,77.90
2022-09-03T22:11:04.564Z,78.00
2022-09-03T22:13:45.795Z,78.50
2022-09-03T22:16:24.138Z,78.70
2022-09-03T22:18:55.576Z,79.00
2022-09-03T22:21:32.542Z,79.70
2022-09-03T22:24:14.625Z,79.20
2022-09-03T22:26:52.117Z,79.30
2022-09-03T22:29:30.866Z,79.60
2022-09-03T22:32:11.049Z,79.70
2022-09-03T22:34:50.084Z,79.60
2022-09-03T22:37:27.180Z,79.70
2022-09-03T22:40:05.571Z,80.20
2022-09-03T22:42:45.099Z,80.20
2022-09-03T22:45:44.115Z,80.30
2022-09-03T22:48:23.078Z,80.60
2022-09-03T22:50:57.487Z,80.60
2022-09-03T22:53:40.289Z,80.60
2022-09-03T22:56:12.309Z,80.70
2022-09-03T22:58:47.810Z,80.70
2022-09-03T23:01:20.787Z,81.10
2022-09-03T23:03:55.073Z,81.20
2022-09-03T23:06:27.713Z,81.60
2022-09-03T23:09:01.403Z,81.80
2022-09-03T23:11:35.211Z,82.10
2022-09-03T23:14:06.312Z,82.40
2022-09-03T23:16:39.484Z,82.60
2022-09-03T23:21:54.534Z,82.90
2022-09-03T23:24:31.828Z,83.40
2022-09-03T23:27:06.421Z,83.70
2022-09-03T23:29:38.519Z,83.90
2022-09-03T23:32:09.137Z,84.10
2022-09-03T23:34:40.725Z,84.30
2022-09-03T23:37:34.191Z,84.30
2022-09-03T23:40:17.149Z,84.40
2022-09-03T23:43:08.160Z,84.50
2022-09-03T23:45:48.419Z,85.30
2022-09-03T23:48:27.728Z,84.90
2022-09-03T23:51:06.820Z,85.10
2022-09-03T23:53:49.141Z,85.30
2022-09-03T23:56:51.935Z,85.10
2022-09-03T23:59:30.960Z,85.30
